createdAt,value
2022-08-29T00:02:26.122Z,14.90
2022-08-29T00:04:53.999Z,14.80
2022-08-29T00:07:23.847Z,14.77
2022-08-29T00:09:51.796Z,14.81
2022-08-29T00:12:19.964Z,14.79
2022-08-29T00:14:47.900Z,14.81
2022-08-29T00:17:15.868Z,14.81
2022-08-29T00:19:43.773Z,14.84
2022-08-29T00:22:11.703Z,14.76
2022-08-29T00:24:40.958Z,14.77
2022-08-29T00:27:08.799Z,14.73
2022-08-29T00:29:36.830Z,14.75
2022-08-29T00:32:05.169Z,14.72
2022-08-29T00:34:33.041Z,14.69
2022-08-29T00:37:00.960Z,14.66
2022-08-29T00:39:29.010Z,14.65
2022-08-29T00:42:02.133Z,14.52
2022-08-29T00:44:29.941Z,14.49
2022-08-29T00:47:00.395Z,14.41
2022-08-29T00:49:35.043Z,14.49
2022-08-29T00:52:08.342Z,14.49
2022-08-29T00:54:37.665Z,14.50
2022-08-29T00:57:07.967Z,14.40
2022-08-29T00:59:39.844Z,14.41
2022-08-29T01:02:11.029Z,14.43
2022-08-29T01:04:40.588Z,14.38
2022-08-29T01:07:10.606Z,14.36
2022-08-29T01:09:40.684Z,14.32
2022-08-29T01:12:18.129Z,14.27
2022-08-29T01:14:51.905Z,14.24
2022-08-29T01:17:22.675Z,14.26
2022-08-29T01:19:57.065Z,14.12
2022-08-29T01:22:52.985Z,14.15
2022-08-29T01:25:25.147Z,14.23
2022-08-29T01:27:59.824Z,14.17
2022-08-29T01:30:27.706Z,14.09
2022-08-29T01:32:57.557Z,14.14
2022-08-29T01:35:25.968Z,14.09
2022-08-29T01:37:53.873Z,14.16
2022-08-29T01:40:30.294Z,14.08
2022-08-29T01:42:58.633Z,13.99
2022-08-29T01:45:26.529Z,14.03
2022-08-29T01:47:54.382Z,13.98
2022-08-29T01:50:22.274Z,14.02
2022-08-29T01:52:50.091Z,14.02
2022-08-29T01:55:18.008Z,13.86
2022-08-29T01:57:48.364Z,13.92
2022-08-29T02:00:18.314Z,13.98
2022-08-29T02:02:46.168Z,13.86
2022-08-29T02:05:14.001Z,13.87
2022-08-29T02:07:41.735Z,13.83
2022-08-29T02:10:10.324Z,13.80
2022-08-29T02:12:38.217Z,13.83
2022-08-29T02:15:08.523Z,13.86
2022-08-29T02:17:36.360Z,14.05
2022-08-29T02:20:07.715Z,14.13
2022-08-29T02:22:35.857Z,14.14
2022-08-29T02:25:24.736Z,14.25
2022-08-29T02:27:53.053Z,14.25
2022-08-29T02:30:23.387Z,14.31
2022-08-29T02:32:51.293Z,14.28
2022-08-29T02:35:19.792Z,14.22
2022-08-29T02:37:48.815Z,14.23
2022-08-29T02:40:16.710Z,14.25
2022-08-29T02:42:44.615Z,14.25
2022-08-29T02:45:12.868Z,14.31
2022-08-29T02:47:42.988Z,14.30
2022-08-29T02:50:11.704Z,14.28
2022-08-29T02:52:39.928Z,14.28
2022-08-29T02:55:09.907Z,14.26
2022-08-29T02:57:38.022Z,14.29
2022-08-29T03:00:08.202Z,14.42
2022-08-29T03:02:38.458Z,14.43
2022-08-29T03:05:08.603Z,14.33
2022-08-29T03:07:36.426Z,14.44
2022-08-29T03:10:07.456Z,14.49
2022-08-29T03:12:35.512Z,14.48
2022-08-29T03:15:03.514Z,14.54
2022-08-29T03:17:31.333Z,14.44
2022-08-29T03:19:59.564Z,14.53
2022-08-29T03:22:29.600Z,14.55
2022-08-29T03:24:57.477Z,14.54
2022-08-29T03:27:25.266Z,14.51
2022-08-29T03:29:53.126Z,14.57
2022-08-29T03:32:21.069Z,14.57
2022-08-29T03:34:48.950Z,14.62
2022-08-29T03:37:16.822Z,14.54
2022-08-29T03:39:46.011Z,14.56
2022-08-29T03:42:14.403Z,14.54
2022-08-29T03:44:42.797Z,14.50
2022-08-29T03:47:10.798Z,14.60
2022-08-29T03:49:38.663Z,14.60
2022-08-29T03:52:09.364Z,14.62
2022-08-29T03:54:37.330Z,14.69
2022-08-29T03:57:06.947Z,14.68
2022-08-29T03:59:35.482Z,14.69
2022-08-29T04:02:03.399Z,14.71
2022-08-29T04:04:48.710Z,14.63
2022-08-29T04:07:17.410Z,14.62
2022-08-29T04:09:45.220Z,14.71
2022-08-29T04:12:14.449Z,14.63
2022-08-29T04:14:42.741Z,14.69
2022-08-29T04:17:12.232Z,14.68
2022-08-29T04:19:40.121Z,14.69
2022-08-29T04:22:08.062Z,14.87
2022-08-29T04:24:36.835Z,14.72
2022-08-29T04:27:04.983Z,14.71
2022-08-29T04:29:38.312Z,14.76
2022-08-29T04:32:06.466Z,14.86
2022-08-29T04:34:34.423Z,14.88
2022-08-29T04:37:02.249Z,14.85
2022-08-29T04:39:30.075Z,14.86
2022-08-29T04:41:58.223Z,14.78
2022-08-29T04:44:26.041Z,14.94
2022-08-29T04:46:55.274Z,14.97
2022-08-29T04:49:23.410Z,15.01
2022-08-29T04:51:53.507Z,15.06
2022-08-29T04:54:21.440Z,15.01
2022-08-29T04:56:49.268Z,14.97
2022-08-29T04:59:19.531Z,15.00
2022-08-29T05:01:48.676Z,15.07
2022-08-29T05:04:18.038Z,15.08
2022-08-29T05:06:45.952Z,15.07
2022-08-29T05:09:13.795Z,15.07
2022-08-29T05:11:41.787Z,15.22
2022-08-29T05:14:09.853Z,15.20
2022-08-29T05:16:38.894Z,15.30
2022-08-29T05:19:09.544Z,15.20
2022-08-29T05:21:40.502Z,15.33
2022-08-29T05:24:11.365Z,15.41
2022-08-29T05:26:41.523Z,15.32
2022-08-29T05:29:11.450Z,15.32
2022-08-29T05:31:41.131Z,15.39
2022-08-29T05:34:31.912Z,15.56
2022-08-29T05:36:59.833Z,15.61
2022-08-29T05:39:27.825Z,15.66
2022-08-29T05:41:56.282Z,15.72
2022-08-29T05:44:24.681Z,15.69
2022-08-29T05:46:52.587Z,15.78
2022-08-29T05:49:20.892Z,15.90
2022-08-29T05:51:49.134Z,15.93
2022-08-29T05:54:18.435Z,15.81
2022-08-29T05:56:46.343Z,15.84
2022-08-29T05:59:14.681Z,15.92
2022-08-29T06:01:42.766Z,15.98
2022-08-29T06:04:11.000Z,16.04
2022-08-29T06:06:41.355Z,15.94
2022-08-29T06:09:09.522Z,15.88
2022-08-29T06:11:38.798Z,16.09
2022-08-29T06:14:06.895Z,16.19
2022-08-29T06:16:35.040Z,16.27
2022-08-29T06:19:02.894Z,16.41
2022-08-29T06:21:31.057Z,16.48
2022-08-29T06:23:59.210Z,16.35
2022-08-29T06:26:27.134Z,16.28
2022-08-29T06:28:56.284Z,16.22
2022-08-29T06:31:27.978Z,16.23
2022-08-29T06:33:58.079Z,16.23
2022-08-29T06:36:26.460Z,16.31
2022-08-29T06:38:56.491Z,16.24
2022-08-29T06:41:24.955Z,16.27
2022-08-29T06:43:53.419Z,16.48
2022-08-29T06:46:25.289Z,16.42
2022-08-29T06:48:54.302Z,16.54
2022-08-29T06:51:22.516Z,16.48
2022-08-29T06:53:50.696Z,16.53
2022-08-29T06:56:19.192Z,16.58
2022-08-29T06:58:47.326Z,16.58
2022-08-29T07:01:17.715Z,16.71
2022-08-29T07:03:47.445Z,16.94
2022-08-29T07:06:18.226Z,17.09
2022-08-29T07:08:55.422Z,17.09
2022-08-29T07:11:25.360Z,17.04
2022-08-29T07:13:53.538Z,17.00
2022-08-29T07:16:23.075Z,16.95
2022-08-29T07:18:52.630Z,16.77
2022-08-29T07:21:22.891Z,16.65
2022-08-29T07:23:51.281Z,16.57
2022-08-29T07:26:22.095Z,16.49
2022-08-29T07:28:52.165Z,16.69
2022-08-29T07:31:20.748Z,16.66
2022-08-29T07:33:59.754Z,16.79
2022-08-29T07:36:34.359Z,16.73
2022-08-29T07:39:04.006Z,16.68
2022-08-29T07:41:32.290Z,16.52
2022-08-29T07:44:00.149Z,16.51
2022-08-29T07:46:28.161Z,16.66
2022-08-29T07:48:56.253Z,16.86
2022-08-29T07:51:27.187Z,17.04
2022-08-29T07:53:57.514Z,17.25
2022-08-29T07:56:27.868Z,17.43
2022-08-29T07:58:56.754Z,17.72
2022-08-29T08:01:25.731Z,17.63
2022-08-29T08:03:54.518Z,17.42
2022-08-29T08:06:27.164Z,17.36
2022-08-29T08:08:57.179Z,17.43
2022-08-29T08:11:26.453Z,17.43
2022-08-29T08:13:54.737Z,17.52
2022-08-29T08:16:29.326Z,17.46
2022-08-29T08:18:57.902Z,17.65
2022-08-29T08:21:27.271Z,17.89
2022-08-29T08:23:56.742Z,18.11
2022-08-29T08:26:25.411Z,18.45
2022-08-29T08:28:55.159Z,18.60
2022-08-29T08:31:24.189Z,18.69
2022-08-29T08:33:52.977Z,18.74
2022-08-29T08:36:23.577Z,18.94
2022-08-29T08:38:52.576Z,19.03
2022-08-29T08:41:32.005Z,18.95
2022-08-29T08:44:03.494Z,18.65
2022-08-29T08:46:38.463Z,18.61
2022-08-29T08:49:11.536Z,18.80
2022-08-29T08:51:44.735Z,19.01
2022-08-29T08:54:19.915Z,19.06
2022-08-29T08:57:01.374Z,18.89
2022-08-29T08:59:39.422Z,18.94
2022-08-29T09:02:18.675Z,19.03
2022-08-29T09:04:59.721Z,19.24
2022-08-29T09:07:45.063Z,19.07
2022-08-29T09:10:26.229Z,18.94
2022-08-29T09:13:01.667Z,19.20
2022-08-29T09:15:34.364Z,19.10
2022-08-29T09:18:05.536Z,18.98
2022-08-29T09:20:35.700Z,19.08
2022-08-29T09:23:07.478Z,19.25
2022-08-29T09:25:36.304Z,19.42
2022-08-29T09:28:08.711Z,19.48
2022-08-29T09:30:38.583Z,19.36
2022-08-29T09:33:09.812Z,19.53
2022-08-29T09:35:41.377Z,19.58
2022-08-29T09:38:11.118Z,19.68
2022-08-29T09:40:49.779Z,19.51
2022-08-29T09:43:26.611Z,19.63
2022-08-29T09:46:13.219Z,19.85
2022-08-29T09:48:43.575Z,20.07
2022-08-29T09:51:21.649Z,20.11
2022-08-29T09:53:50.216Z,20.25
2022-08-29T09:56:22.709Z,20.58
2022-08-29T09:59:02.970Z,20.54
2022-08-29T10:01:39.491Z,20.59
2022-08-29T10:04:09.109Z,20.77
2022-08-29T10:06:45.281Z,21.02
2022-08-29T10:09:28.075Z,21.39
2022-08-29T10:12:00.609Z,21.38
2022-08-29T10:14:35.423Z,21.21
2022-08-29T10:17:20.796Z,21.30
2022-08-29T10:19:49.422Z,21.52
2022-08-29T10:22:34.004Z,21.40
2022-08-29T10:25:06.577Z,21.33
2022-08-29T10:27:43.835Z,21.33
2022-08-29T10:30:16.628Z,21.66
2022-08-29T10:33:08.085Z,21.75
2022-08-29T10:35:41.479Z,21.82
2022-08-29T10:38:18.112Z,21.41
2022-08-29T10:40:48.626Z,21.32
2022-08-29T10:43:31.052Z,21.53
2022-08-29T10:46:15.707Z,21.30
2022-08-29T10:48:59.357Z,21.34
2022-08-29T10:51:34.788Z,21.50
2022-08-29T10:54:12.975Z,21.79
2022-08-29T10:56:45.964Z,21.57
2022-08-29T10:59:20.513Z,22.12
2022-08-29T11:01:55.037Z,22.86
2022-08-29T11:04:28.102Z,23.33
2022-08-29T11:07:02.150Z,23.00
2022-08-29T11:09:34.720Z,23.36
2022-08-29T11:12:12.542Z,23.32
2022-08-29T11:14:50.050Z,22.78
2022-08-29T11:17:22.334Z,22.52
2022-08-29T11:20:01.902Z,22.32
2022-08-29T11:22:34.614Z,22.46
2022-08-29T11:25:10.296Z,22.43
2022-08-29T11:27:53.656Z,22.53
2022-08-29T11:30:24.984Z,22.77
2022-08-29T11:33:09.401Z,23.22
2022-08-29T11:35:47.103Z,23.68
2022-08-29T11:38:45.166Z,24.13
2022-08-29T11:41:27.296Z,24.34
2022-08-29T11:43:59.779Z,24.22
2022-08-29T11:46:39.744Z,24.23
2022-08-29T11:49:36.113Z,24.03
2022-08-29T11:52:21.868Z,24.32
2022-08-29T11:55:24.187Z,24.47
2022-08-29T11:58:03.829Z,24.56
2022-08-29T12:00:51.348Z,24.19
2022-08-29T12:03:53.768Z,23.71
2022-08-29T12:06:37.779Z,23.67
2022-08-29T12:09:43.689Z,23.55
2022-08-29T12:12:31.630Z,23.62
2022-08-29T12:15:00.098Z,23.77
2022-08-29T12:18:01.398Z,23.97
2022-08-29T12:20:41.334Z,23.80
2022-08-29T12:23:21.232Z,23.55
2022-08-29T12:26:09.632Z,23.53
2022-08-29T12:28:46.467Z,23.36
2022-08-29T12:32:02.231Z,23.87
2022-08-29T12:34:59.020Z,24.03
2022-08-29T12:37:54.085Z,24.20
2022-08-29T12:40:45.006Z,24.36
2022-08-29T12:43:26.426Z,24.46
2022-08-29T12:45:56.488Z,24.20
2022-08-29T12:48:27.983Z,24.19
2022-08-29T12:50:55.860Z,24.33
2022-08-29T12:53:26.892Z,24.37
2022-08-29T12:55:58.509Z,24.45
2022-08-29T12:58:39.250Z,24.04
2022-08-29T13:01:11.635Z,24.14
2022-08-29T13:03:39.740Z,23.98
2022-08-29T13:06:18.851Z,23.98
2022-08-29T13:08:50.171Z,24.05
2022-08-29T13:11:23.037Z,24.04
2022-08-29T13:13:51.027Z,24.11
2022-08-29T13:16:27.194Z,24.20
2022-08-29T13:19:10.013Z,24.18
2022-08-29T13:21:39.187Z,24.31
2022-08-29T13:24:12.811Z,24.07
2022-08-29T13:27:05.963Z,23.69
2022-08-29T13:29:38.629Z,23.30
2022-08-29T13:32:12.759Z,22.90
2022-08-29T13:35:00.473Z,22.87
2022-08-29T13:37:31.944Z,22.70
2022-08-29T13:40:31.145Z,22.75
2022-08-29T13:43:02.313Z,22.65
2022-08-29T13:45:30.504Z,22.81
2022-08-29T13:48:03.021Z,22.99
2022-08-29T13:50:32.592Z,23.07
2022-08-29T13:53:00.603Z,23.04
2022-08-29T13:55:29.688Z,22.92
2022-08-29T13:57:58.387Z,22.94
2022-08-29T14:00:32.333Z,23.07
2022-08-29T14:03:05.456Z,23.05
2022-08-29T14:05:35.183Z,23.11
2022-08-29T14:08:03.819Z,23.14
2022-08-29T14:10:31.721Z,23.17
2022-08-29T14:12:59.757Z,23.14
2022-08-29T14:15:29.335Z,23.21
2022-08-29T14:17:57.580Z,23.36
2022-08-29T14:20:26.105Z,23.66
2022-08-29T14:22:54.034Z,23.91
2022-08-29T14:25:22.189Z,24.04
2022-08-29T14:27:51.022Z,24.19
2022-08-29T14:30:21.208Z,24.20
2022-08-29T14:33:11.537Z,24.41
2022-08-29T14:35:42.525Z,24.47
2022-08-29T14:38:11.766Z,24.37
2022-08-29T14:40:39.770Z,24.27
2022-08-29T14:43:10.944Z,24.44
2022-08-29T14:45:39.176Z,24.75
2022-08-29T14:48:07.397Z,24.88
2022-08-29T14:50:36.958Z,24.91
2022-08-29T14:53:05.243Z,24.87
2022-08-29T14:55:33.826Z,25.02
2022-08-29T14:58:01.822Z,25.09
2022-08-29T15:00:33.939Z,24.92
2022-08-29T15:03:02.109Z,24.69
2022-08-29T15:05:30.239Z,24.51
2022-08-29T15:08:03.175Z,24.48
2022-08-29T15:10:34.187Z,24.53
2022-08-29T15:13:02.092Z,24.46
2022-08-29T15:15:30.316Z,24.44
2022-08-29T15:17:59.800Z,24.41
2022-08-29T15:20:39.311Z,24.57
2022-08-29T15:23:10.083Z,24.52
2022-08-29T15:25:45.047Z,24.62
2022-08-29T15:28:20.158Z,24.73
2022-08-29T15:30:48.102Z,24.67
2022-08-29T15:33:16.379Z,24.65
2022-08-29T15:35:44.499Z,24.83
2022-08-29T15:38:16.319Z,24.86
2022-08-29T15:40:44.832Z,24.91
2022-08-29T15:43:13.477Z,25.00
2022-08-29T15:45:41.432Z,24.88
2022-08-29T15:48:11.459Z,24.97
2022-08-29T15:50:39.687Z,24.88
2022-08-29T15:53:07.568Z,24.59
2022-08-29T15:55:39.113Z,24.48
2022-08-29T15:58:10.304Z,24.39
2022-08-29T16:00:38.477Z,24.24
2022-08-29T16:03:07.677Z,24.12
2022-08-29T16:05:38.164Z,24.12
2022-08-29T16:08:06.314Z,24.35
2022-08-29T16:10:36.285Z,24.42
2022-08-29T16:13:05.039Z,24.67
2022-08-29T16:15:33.944Z,24.91
2022-08-29T16:18:03.891Z,25.06
2022-08-29T16:20:32.526Z,25.05
2022-08-29T16:23:01.016Z,25.16
2022-08-29T16:25:30.990Z,25.87
2022-08-29T16:28:01.348Z,26.72
2022-08-29T16:30:31.561Z,27.13
2022-08-29T16:32:59.951Z,27.34
2022-08-29T16:35:28.420Z,27.52
2022-08-29T16:38:02.155Z,27.67
2022-08-29T16:40:31.398Z,27.53
2022-08-29T16:43:01.785Z,27.09
2022-08-29T16:45:29.822Z,26.85
2022-08-29T16:47:57.899Z,27.00
2022-08-29T16:50:26.838Z,27.44
2022-08-29T16:52:55.320Z,27.42
2022-08-29T16:55:24.859Z,27.62
2022-08-29T16:58:09.983Z,27.57
2022-08-29T17:00:39.928Z,27.57
2022-08-29T17:03:07.838Z,27.86
2022-08-29T17:05:35.923Z,27.68
2022-08-29T17:08:03.312Z,27.79
2022-08-29T17:10:30.117Z,27.75
2022-08-29T17:12:56.995Z,27.50
2022-08-29T17:15:23.862Z,26.57
2022-08-29T17:17:53.184Z,25.58
2022-08-29T17:20:21.333Z,24.89
2022-08-29T17:22:50.025Z,24.64
2022-08-29T17:25:20.591Z,24.34
2022-08-29T17:28:07.505Z,24.14
2022-08-29T17:30:37.405Z,23.95
2022-08-29T17:33:08.174Z,23.52
2022-08-29T17:35:36.106Z,23.51
2022-08-29T17:38:04.116Z,23.42
2022-08-29T17:40:32.537Z,23.27
2022-08-29T17:43:01.776Z,23.19
2022-08-29T17:45:30.120Z,23.04
2022-08-29T17:47:58.347Z,23.03
2022-08-29T17:50:27.680Z,22.98
2022-08-29T17:52:55.582Z,22.89
2022-08-29T17:55:23.529Z,22.81
2022-08-29T17:57:58.024Z,22.73
2022-08-29T18:00:26.627Z,22.65
2022-08-29T18:02:54.628Z,22.49
2022-08-29T18:05:22.525Z,22.43
2022-08-29T18:07:52.060Z,22.37
2022-08-29T18:10:22.055Z,22.31
2022-08-29T18:12:50.624Z,22.21
2022-08-29T18:15:18.488Z,22.13
2022-08-29T18:17:46.414Z,22.05
2022-08-29T18:20:19.333Z,21.94
2022-08-29T18:22:50.994Z,21.86
2022-08-29T18:25:22.443Z,21.77
2022-08-29T18:27:51.115Z,21.69
2022-08-29T18:30:22.549Z,21.64
2022-08-29T18:32:50.435Z,21.57
2022-08-29T18:35:19.114Z,21.48
2022-08-29T18:37:47.080Z,21.42
2022-08-29T18:40:15.285Z,21.32
2022-08-29T18:42:44.549Z,21.24
2022-08-29T18:45:13.289Z,21.15
2022-08-29T18:47:41.237Z,21.16
2022-08-29T18:50:27.403Z,21.10
2022-08-29T18:52:56.587Z,21.02
2022-08-29T18:55:25.106Z,20.89
2022-08-29T18:57:54.940Z,20.86
2022-08-29T19:00:24.925Z,20.81
2022-08-29T19:02:53.295Z,20.75
2022-08-29T19:05:22.082Z,20.70
2022-08-29T19:07:49.898Z,20.70
2022-08-29T19:10:18.149Z,20.63
2022-08-29T19:12:46.778Z,20.54
2022-08-29T19:15:17.638Z,20.50
2022-08-29T19:17:45.516Z,20.46
2022-08-29T19:20:33.731Z,20.42
2022-08-29T19:23:01.932Z,20.31
2022-08-29T19:25:30.048Z,20.31
2022-08-29T19:27:58.415Z,20.25
2022-08-29T19:30:28.284Z,20.22
2022-08-29T19:32:56.177Z,20.19
2022-08-29T19:35:25.200Z,20.14
2022-08-29T19:37:53.954Z,20.09
2022-08-29T19:40:24.302Z,19.99
2022-08-29T19:42:53.956Z,19.98
2022-08-29T19:45:21.985Z,19.95
2022-08-29T19:47:52.202Z,19.91
2022-08-29T19:50:23.576Z,19.89
2022-08-29T19:52:52.309Z,19.82
2022-08-29T19:55:23.113Z,19.78
2022-08-29T19:57:52.496Z,19.64
2022-08-29T20:00:24.181Z,19.63
2022-08-29T20:02:53.917Z,19.56
2022-08-29T20:05:22.217Z,19.51
2022-08-29T20:07:51.196Z,19.46
2022-08-29T20:10:22.349Z,19.47
2022-08-29T20:12:51.197Z,19.41
2022-08-29T20:15:20.385Z,19.24
2022-08-29T20:17:48.498Z,19.26
2022-08-29T20:20:21.003Z,19.25
2022-08-29T20:22:49.408Z,19.17
2022-08-29T20:25:18.826Z,18.95
2022-08-29T20:27:48.046Z,19.08
2022-08-29T20:30:20.888Z,19.01
2022-08-29T20:32:50.218Z,18.96
2022-08-29T20:35:34.941Z,18.97
2022-08-29T20:38:02.780Z,18.85
2022-08-29T20:40:30.923Z,18.88
2022-08-29T20:42:58.970Z,18.81
2022-08-29T20:45:26.912Z,18.76
2022-08-29T20:47:54.778Z,18.72
2022-08-29T20:50:24.005Z,18.64
2022-08-29T20:52:53.838Z,18.59
2022-08-29T20:55:22.830Z,18.55
2022-08-29T20:57:50.780Z,18.47
2022-08-29T21:00:19.676Z,18.45
2022-08-29T21:03:05.643Z,18.43
2022-08-29T21:05:44.725Z,18.38
2022-08-29T21:08:15.185Z,18.32
2022-08-29T21:10:43.655Z,18.36
2022-08-29T21:13:11.612Z,18.28
2022-08-29T21:15:41.433Z,18.26
2022-08-29T21:18:11.057Z,18.20
2022-08-29T21:20:52.317Z,18.20
2022-08-29T21:23:23.274Z,18.15
2022-08-29T21:25:53.941Z,18.11
2022-08-29T21:28:22.282Z,18.07
2022-08-29T21:30:50.342Z,18.04
2022-08-29T21:33:18.408Z,18.03
2022-08-29T21:35:49.995Z,17.94
2022-08-29T21:38:19.283Z,17.90
2022-08-29T21:40:51.034Z,17.86
2022-08-29T21:43:19.821Z,17.86
2022-08-29T21:45:48.011Z,17.81
2022-08-29T21:48:17.725Z,17.78
2022-08-29T21:50:47.051Z,17.74
2022-08-29T21:53:15.416Z,17.66
2022-08-29T21:55:43.417Z,17.61
2022-08-29T21:58:11.292Z,17.61
2022-08-29T22:00:41.845Z,17.60
2022-08-29T22:03:12.385Z,17.55
2022-08-29T22:05:43.815Z,17.51
2022-08-29T22:08:14.236Z,17.52
2022-08-29T22:10:43.123Z,17.50
2022-08-29T22:13:10.992Z,17.47
2022-08-29T22:15:56.471Z,17.36
2022-08-29T22:18:24.364Z,17.40
2022-08-29T22:20:55.503Z,17.38
2022-08-29T22:23:25.430Z,17.37
2022-08-29T22:25:53.795Z,17.34
2022-08-29T22:28:21.600Z,17.31
2022-08-29T22:30:50.420Z,17.32
2022-08-29T22:33:18.450Z,17.30
2022-08-29T22:35:46.806Z,17.23
2022-08-29T22:38:14.707Z,17.22
2022-08-29T22:40:45.461Z,17.21
2022-08-29T22:43:13.531Z,17.17
2022-08-29T22:45:41.691Z,17.11
2022-08-29T22:48:09.899Z,17.12
2022-08-29T22:50:39.504Z,17.06
2022-08-29T22:53:07.271Z,17.07
2022-08-29T22:55:35.213Z,17.04
2022-08-29T22:58:04.773Z,17.00
2022-08-29T23:00:32.613Z,16.97
2022-08-29T23:03:02.110Z,16.90
2022-08-29T23:05:31.198Z,16.92
2022-08-29T23:07:59.081Z,16.88
2022-08-29T23:10:27.075Z,16.85
2022-08-29T23:12:54.913Z,16.84
2022-08-29T23:15:24.216Z,16.74
2022-08-29T23:17:51.989Z,16.64
2022-08-29T23:20:19.984Z,16.67
2022-08-29T23:22:48.659Z,16.66
2022-08-29T23:25:17.812Z,16.58
2022-08-29T23:27:45.724Z,16.55
2022-08-29T23:30:15.360Z,16.59
2022-08-29T23:32:44.535Z,16.60
2022-08-29T23:35:12.608Z,16.43
2022-08-29T23:37:40.542Z,16.47
2022-08-29T23:40:09.561Z,16.42
2022-08-29T23:42:37.909Z,16.31
2022-08-29T23:45:06.715Z,16.33
2022-08-29T23:47:36.005Z,16.30
2022-08-29T23:50:06.311Z,16.31
2022-08-29T23:52:34.214Z,16.29
2022-08-29T23:55:02.562Z,16.20
2022-08-29T23:57:30.426Z,16.24
